UAE811 OMDB-OERK
Flight info
| Callsign | UAE811 |
|---|---|
| Flight time | 1h 30m |
| Altitude | 34000 |
| Route | SENPA N571 ALPOB L768 ULADA T136 OTISU N112 GETOT Q212 MEMGO |
| Aircraft | B77W/H-SDE1E2E3FGHIJ2J3J4J5M1RWXY/LB1D1 |
Departure
| Time | 2026-04-20 14:16 |
|---|---|
| Airport | Dubai International Airport (OMDB) |
Arrival
| Time | 2026-04-20 15:46 |
|---|---|
| Airport | King Khalid International Airport (OERK) |
| Time | Latitude | Longitude | Altitude | Speed | Heading |
|---|---|---|---|---|---|
| 2026-04-20 13:56 | 25.24562 | 55.36489 | 26 ft | 0 kts | 31° |
| 2026-04-20 14:00 | 25.24550 | 55.36481 | 32 ft | 4 kts | 31° |
| 2026-04-20 14:00 | 25.24528 | 55.36466 | 32 ft | 4 kts | 27° |
| 2026-04-20 14:01 | 25.24505 | 55.36457 | 32 ft | 4 kts | 1° |
| 2026-04-20 14:01 | 25.24483 | 55.36461 | 31 ft | 4 kts | 330° |
| 2026-04-20 14:01 | 25.24466 | 55.36476 | 30 ft | 4 kts | 301° |
| 2026-04-20 14:01 | 25.24457 | 55.36496 | 32 ft | 4 kts | 291° |
| 2026-04-20 14:02 | 25.24448 | 55.36522 | 32 ft | 2 kts | 291° |
| 2026-04-20 14:02 | 25.24448 | 55.36523 | 32 ft | 0 kts | 291° |
| 2026-04-20 14:04 | 25.24448 | 55.36520 | 26 ft | 3 kts | 291° |
| 2026-04-20 14:04 | 25.24474 | 55.36463 | 29 ft | 12 kts | 300° |
| 2026-04-20 14:05 | 25.24547 | 55.36328 | 30 ft | 25 kts | 302° |
| 2026-04-20 14:05 | 25.24639 | 55.36166 | 29 ft | 25 kts | 302° |
| 2026-04-20 14:05 | 25.24747 | 55.35974 | 28 ft | 32 kts | 302° |
| 2026-04-20 14:05 | 25.24861 | 55.35773 | 31 ft | 30 kts | 303° |
| 2026-04-20 14:06 | 25.24981 | 55.35584 | 32 ft | 30 kts | 303° |
| 2026-04-20 14:06 | 25.25089 | 55.35391 | 30 ft | 30 kts | 302° |
| 2026-04-20 14:06 | 25.25208 | 55.35199 | 30 ft | 30 kts | 307° |
| 2026-04-20 14:06 | 25.25319 | 55.35007 | 29 ft | 30 kts | 301° |
| 2026-04-20 14:07 | 25.25477 | 55.34905 | 29 ft | 28 kts | 20° |
| 2026-04-20 14:07 | 25.25611 | 55.34989 | 32 ft | 8 kts | 31° |
| 2026-04-20 14:07 | 25.25623 | 55.34997 | 29 ft | 0 kts | 31° |
| 2026-04-20 14:08 | 25.25658 | 55.35020 | 29 ft | 16 kts | 31° |
| 2026-04-20 14:08 | 25.25745 | 55.35104 | 28 ft | 14 kts | 80° |
| 2026-04-20 14:08 | 25.25779 | 55.35212 | 28 ft | 20 kts | 41° |
| 2026-04-20 14:09 | 25.25951 | 55.35333 | 27 ft | 33 kts | 39° |
| 2026-04-20 14:09 | 25.25993 | 55.35545 | 28 ft | 30 kts | 112° |
| 2026-04-20 14:09 | 25.25885 | 55.35741 | 28 ft | 30 kts | 122° |
| 2026-04-20 14:09 | 25.25776 | 55.35935 | 28 ft | 30 kts | 122° |
| 2026-04-20 14:10 | 25.25668 | 55.36129 | 29 ft | 25 kts | 122° |
| 2026-04-20 14:10 | 25.25583 | 55.36278 | 29 ft | 23 kts | 122° |
| 2026-04-20 14:10 | 25.25499 | 55.36428 | 29 ft | 23 kts | 122° |
| 2026-04-20 14:10 | 25.25414 | 55.36578 | 29 ft | 23 kts | 122° |
| 2026-04-20 14:11 | 25.25330 | 55.36728 | 29 ft | 23 kts | 122° |
| 2026-04-20 14:11 | 25.25245 | 55.36880 | 29 ft | 26 kts | 122° |
| 2026-04-20 14:11 | 25.25142 | 55.37064 | 30 ft | 28 kts | 122° |
| 2026-04-20 14:11 | 25.25038 | 55.37250 | 30 ft | 28 kts | 122° |
| 2026-04-20 14:12 | 25.24934 | 55.37435 | 30 ft | 28 kts | 122° |
| 2026-04-20 14:12 | 25.24829 | 55.37621 | 30 ft | 28 kts | 122° |
| 2026-04-20 14:12 | 25.24725 | 55.37806 | 29 ft | 27 kts | 122° |
| 2026-04-20 14:12 | 25.24677 | 55.37891 | 29 ft | 10 kts | 122° |
| 2026-04-20 14:13 | 25.24630 | 55.37973 | 30 ft | 16 kts | 122° |
| 2026-04-20 14:13 | 25.24624 | 55.38031 | 30 ft | 8 kts | 62° |
| 2026-04-20 14:13 | 25.24641 | 55.38047 | 31 ft | 0 kts | 32° |
| 2026-04-20 14:14 | 25.24650 | 55.38054 | 31 ft | 9 kts | 32° |
| 2026-04-20 14:14 | 25.24757 | 55.38093 | 35 ft | 19 kts | 340° |
| 2026-04-20 14:14 | 25.24803 | 55.38034 | 35 ft | 0 kts | 302° |
| 2026-04-20 14:15 | 25.24810 | 55.38021 | 35 ft | 11 kts | 302° |
| 2026-04-20 14:15 | 25.24981 | 55.37712 | 35 ft | 90 kts | 301° |
| 2026-04-20 14:15 | 25.25449 | 55.36867 | 36 ft | 165 kts | 301° |
| 2026-04-20 14:15 | 25.26096 | 55.35699 | 562 ft | 176 kts | 302° |
| 2026-04-20 14:16 | 25.26726 | 55.34575 | 1470 ft | 172 kts | 302° |
| 2026-04-20 14:16 | 25.27355 | 55.33436 | 2237 ft | 175 kts | 302° |
| 2026-04-20 14:16 | 25.28016 | 55.32245 | 2769 ft | 192 kts | 303° |
| 2026-04-20 14:16 | 25.28772 | 55.30892 | 3021 ft | 221 kts | 303° |
| 2026-04-20 14:17 | 25.29546 | 55.29308 | 3251 ft | 248 kts | 288° |
| 2026-04-20 14:17 | 25.29777 | 55.27365 | 3799 ft | 262 kts | 275° |
| 2026-04-20 14:17 | 25.29907 | 55.25322 | 4559 ft | 271 kts | 276° |
| 2026-04-20 14:17 | 25.30060 | 55.23225 | 5381 ft | 276 kts | 276° |
| 2026-04-20 14:18 | 25.30222 | 55.21101 | 6271 ft | 279 kts | 276° |
| 2026-04-20 14:18 | 25.30388 | 55.18955 | 6844 ft | 286 kts | 276° |
| 2026-04-20 14:18 | 25.30403 | 55.16571 | 7035 ft | 339 kts | 268° |
| 2026-04-20 14:18 | 25.30206 | 55.13900 | 7032 ft | 360 kts | 265° |
| 2026-04-20 14:19 | 25.29944 | 55.11131 | 7046 ft | 364 kts | 265° |
| 2026-04-20 14:19 | 25.29688 | 55.08361 | 8182 ft | 365 kts | 265° |
| 2026-04-20 14:19 | 25.29445 | 55.05550 | 9694 ft | 369 kts | 266° |
| 2026-04-20 14:19 | 25.29215 | 55.02712 | 11051 ft | 372 kts | 266° |
| 2026-04-20 14:20 | 25.28991 | 54.99845 | 12368 ft | 378 kts | 267° |
| 2026-04-20 14:20 | 25.28766 | 54.96920 | 13690 ft | 385 kts | 267° |
| 2026-04-20 14:20 | 25.28547 | 54.93940 | 14589 ft | 393 kts | 268° |
| 2026-04-20 14:20 | 25.28461 | 54.91901 | 14824 ft | 395 kts | 270° |
| 2026-04-20 14:21 | 25.28396 | 54.88897 | 14817 ft | 396 kts | 270° |
| 2026-04-20 14:21 | 25.28333 | 54.85861 | 14820 ft | 394 kts | 270° |
| 2026-04-20 14:21 | 25.28257 | 54.82837 | 14817 ft | 393 kts | 270° |
| 2026-04-20 14:21 | 25.28170 | 54.79822 | 14820 ft | 393 kts | 270° |
| 2026-04-20 14:22 | 25.28080 | 54.76801 | 14818 ft | 394 kts | 270° |
| 2026-04-20 14:22 | 25.28137 | 54.73783 | 14841 ft | 392 kts | 281° |
| 2026-04-20 14:22 | 25.28847 | 54.70918 | 15796 ft | 390 kts | 288° |
| 2026-04-20 14:22 | 25.29643 | 54.68016 | 16886 ft | 400 kts | 287° |
| 2026-04-20 14:23 | 25.30426 | 54.65031 | 18050 ft | 408 kts | 286° |
| 2026-04-20 14:23 | 25.31199 | 54.61998 | 19091 ft | 413 kts | 285° |
| 2026-04-20 14:23 | 25.31969 | 54.58928 | 20196 ft | 415 kts | 285° |
| 2026-04-20 14:23 | 25.32741 | 54.55844 | 21264 ft | 418 kts | 285° |
| 2026-04-20 14:24 | 25.33523 | 54.52729 | 22260 ft | 423 kts | 285° |
| 2026-04-20 14:24 | 25.34355 | 54.49593 | 23151 ft | 428 kts | 286° |
| 2026-04-20 14:24 | 25.35220 | 54.46431 | 23898 ft | 432 kts | 286° |
| 2026-04-20 14:24 | 25.36100 | 54.43230 | 24584 ft | 436 kts | 286° |
| 2026-04-20 14:25 | 25.36983 | 54.40004 | 25247 ft | 441 kts | 286° |
| 2026-04-20 14:25 | 25.37867 | 54.36747 | 25880 ft | 445 kts | 286° |
| 2026-04-20 14:25 | 25.38758 | 54.33452 | 26486 ft | 449 kts | 286° |
| 2026-04-20 14:25 | 25.39652 | 54.30139 | 27072 ft | 452 kts | 286° |
| 2026-04-20 14:26 | 25.40547 | 54.26791 | 27626 ft | 455 kts | 285° |
| 2026-04-20 14:26 | 25.41398 | 54.23407 | 28162 ft | 458 kts | 285° |
| 2026-04-20 14:26 | 25.42228 | 54.19990 | 28653 ft | 461 kts | 284° |
| 2026-04-20 14:26 | 25.43062 | 54.16551 | 29114 ft | 464 kts | 285° |
| 2026-04-20 14:27 | 25.43910 | 54.13093 | 29532 ft | 467 kts | 285° |
| 2026-04-20 14:27 | 25.44765 | 54.09626 | 29942 ft | 469 kts | 285° |
| 2026-04-20 14:27 | 25.45618 | 54.06150 | 30373 ft | 468 kts | 285° |
| 2026-04-20 14:27 | 25.46464 | 54.02677 | 30872 ft | 465 kts | 285° |
| 2026-04-20 14:28 | 25.47302 | 53.99233 | 31398 ft | 463 kts | 285° |
| 2026-04-20 14:28 | 25.48137 | 53.95794 | 31871 ft | 461 kts | 285° |
| 2026-04-20 14:28 | 25.48968 | 53.92371 | 32307 ft | 460 kts | 285° |
| 2026-04-20 14:28 | 25.49795 | 53.88960 | 32746 ft | 458 kts | 285° |
| 2026-04-20 14:29 | 25.50619 | 53.85561 | 33183 ft | 457 kts | 285° |
| 2026-04-20 14:29 | 25.51439 | 53.82173 | 33619 ft | 455 kts | 285° |
| 2026-04-20 14:29 | 25.52258 | 53.78788 | 33849 ft | 458 kts | 285° |
| 2026-04-20 14:29 | 25.53085 | 53.75369 | 33832 ft | 459 kts | 285° |
| 2026-04-20 14:30 | 25.54703 | 53.68579 | 34183 ft | 457 kts | 285° |
| 2026-04-20 14:30 | 25.55510 | 53.65156 | 34758 ft | 449 kts | 285° |
| 2026-04-20 14:30 | 25.56280 | 53.61893 | 35440 ft | 439 kts | 285° |
| 2026-04-20 14:31 | 25.57042 | 53.58660 | 36134 ft | 429 kts | 285° |
| 2026-04-20 14:31 | 25.57797 | 53.55458 | 36763 ft | 420 kts | 285° |
| 2026-04-20 14:31 | 25.58530 | 53.52346 | 37273 ft | 415 kts | 285° |
| 2026-04-20 14:31 | 25.59246 | 53.49311 | 37688 ft | 411 kts | 286° |
| 2026-04-20 14:32 | 25.59966 | 53.46253 | 37827 ft | 413 kts | 286° |
| 2026-04-20 14:32 | 25.60693 | 53.43165 | 37837 ft | 415 kts | 286° |
| 2026-04-20 14:32 | 25.62145 | 53.37000 | 37827 ft | 411 kts | 286° |
| 2026-04-20 14:33 | 25.63588 | 53.30902 | 37827 ft | 408 kts | 286° |
| 2026-04-20 14:33 | 25.65023 | 53.24830 | 37835 ft | 407 kts | 285° |
| 2026-04-20 14:34 | 25.66451 | 53.18766 | 37837 ft | 406 kts | 285° |
| 2026-04-20 14:34 | 25.67877 | 53.12699 | 37834 ft | 407 kts | 285° |
| 2026-04-20 14:35 | 25.69302 | 53.06624 | 37834 ft | 408 kts | 285° |
| 2026-04-20 14:35 | 25.71063 | 53.00652 | 37838 ft | 408 kts | 292° |
| 2026-04-20 14:36 | 25.73539 | 52.94992 | 37836 ft | 409 kts | 296° |
| 2026-04-20 14:36 | 25.76203 | 52.89418 | 37839 ft | 409 kts | 296° |
| 2026-04-20 14:37 | 25.78856 | 52.83837 | 37836 ft | 409 kts | 296° |
| 2026-04-20 14:37 | 25.81481 | 52.78282 | 37834 ft | 409 kts | 296° |
| 2026-04-20 14:38 | 25.84113 | 52.72696 | 37835 ft | 408 kts | 296° |
| 2026-04-20 14:38 | 25.86743 | 52.67107 | 37827 ft | 408 kts | 296° |
| 2026-04-20 14:39 | 25.89365 | 52.61531 | 37831 ft | 407 kts | 296° |
| 2026-04-20 14:39 | 25.91913 | 52.55922 | 37833 ft | 406 kts | 295° |
| 2026-04-20 14:40 | 25.94393 | 52.50286 | 37838 ft | 406 kts | 295° |
| 2026-04-20 14:40 | 25.96878 | 52.44664 | 37838 ft | 405 kts | 295° |
| 2026-04-20 14:41 | 25.99369 | 52.39046 | 37839 ft | 405 kts | 295° |
| 2026-04-20 14:41 | 26.01866 | 52.33439 | 37845 ft | 405 kts | 295° |
| 2026-04-20 14:42 | 26.04363 | 52.27831 | 37832 ft | 404 kts | 295° |
| 2026-04-20 14:42 | 26.06853 | 52.22226 | 37830 ft | 404 kts | 295° |
| 2026-04-20 14:43 | 26.09343 | 52.16613 | 37835 ft | 404 kts | 295° |
| 2026-04-20 14:43 | 26.11827 | 52.11004 | 37835 ft | 404 kts | 294° |
| 2026-04-20 14:44 | 26.14295 | 52.05426 | 37832 ft | 404 kts | 294° |
| 2026-04-20 14:44 | 26.16775 | 51.99813 | 37835 ft | 404 kts | 294° |
| 2026-04-20 14:45 | 26.19293 | 51.94220 | 37836 ft | 404 kts | 295° |
| 2026-04-20 14:45 | 26.21792 | 51.88622 | 37835 ft | 404 kts | 294° |
| 2026-04-20 14:46 | 26.24269 | 51.83010 | 37834 ft | 404 kts | 294° |
| 2026-04-20 14:46 | 26.26758 | 51.77401 | 37833 ft | 404 kts | 294° |
| 2026-04-20 14:47 | 26.29262 | 51.71799 | 37837 ft | 404 kts | 294° |
| 2026-04-20 14:48 | 26.33013 | 51.63379 | 37837 ft | 405 kts | 294° |
| 2026-04-20 14:48 | 26.35512 | 51.57757 | 37836 ft | 405 kts | 294° |
| 2026-04-20 14:49 | 26.37948 | 51.52095 | 37836 ft | 404 kts | 291° |
| 2026-04-20 14:49 | 26.39854 | 51.46203 | 37842 ft | 404 kts | 288° |
| 2026-04-20 14:50 | 26.41725 | 51.40280 | 37836 ft | 405 kts | 288° |
| 2026-04-20 14:50 | 26.43620 | 51.34364 | 37838 ft | 405 kts | 289° |
| 2026-04-20 14:51 | 26.45558 | 51.28461 | 37837 ft | 405 kts | 289° |
| 2026-04-20 14:51 | 26.47457 | 51.22584 | 37836 ft | 405 kts | 288° |
| 2026-04-20 14:52 | 26.49338 | 51.16651 | 37841 ft | 405 kts | 288° |
| 2026-04-20 14:52 | 26.51218 | 51.10719 | 37838 ft | 405 kts | 288° |
| 2026-04-20 14:53 | 26.53098 | 51.04789 | 37841 ft | 405 kts | 288° |
| 2026-04-20 14:53 | 26.54976 | 50.98858 | 37846 ft | 405 kts | 288° |
| 2026-04-20 14:54 | 26.56850 | 50.92930 | 37843 ft | 405 kts | 288° |
| 2026-04-20 14:54 | 26.58698 | 50.86994 | 37847 ft | 404 kts | 287° |
| 2026-04-20 14:55 | 26.60515 | 50.81048 | 37847 ft | 404 kts | 287° |
| 2026-04-20 14:55 | 26.62332 | 50.75108 | 37850 ft | 404 kts | 287° |
| 2026-04-20 14:56 | 26.64152 | 50.69160 | 37849 ft | 404 kts | 287° |
| 2026-04-20 14:56 | 26.65937 | 50.63208 | 37853 ft | 404 kts | 287° |
| 2026-04-20 14:57 | 26.67705 | 50.57244 | 37849 ft | 404 kts | 287° |
| 2026-04-20 14:57 | 26.69475 | 50.51282 | 37857 ft | 404 kts | 287° |
| 2026-04-20 14:58 | 26.71185 | 50.45297 | 37857 ft | 404 kts | 285° |
| 2026-04-20 14:58 | 26.72711 | 50.39259 | 37861 ft | 404 kts | 284° |
| 2026-04-20 14:59 | 26.74258 | 50.33217 | 37856 ft | 402 kts | 282° |
| 2026-04-20 14:59 | 26.74568 | 50.30128 | 37864 ft | 402 kts | 270° |
| 2026-04-20 14:59 | 26.74302 | 50.27010 | 37874 ft | 404 kts | 264° |
| 2026-04-20 15:00 | 26.72632 | 50.20968 | 37865 ft | 415 kts | 247° |
| 2026-04-20 15:00 | 26.69639 | 50.15408 | 37869 ft | 418 kts | 245° |
| 2026-04-20 15:01 | 26.66625 | 50.09853 | 37862 ft | 418 kts | 246° |
| 2026-04-20 15:01 | 26.63665 | 50.04270 | 37864 ft | 417 kts | 246° |
| 2026-04-20 15:02 | 26.60723 | 49.98687 | 37865 ft | 417 kts | 246° |
| 2026-04-20 15:02 | 26.57786 | 49.93117 | 37857 ft | 416 kts | 246° |
| 2026-04-20 15:03 | 26.54866 | 49.87545 | 37857 ft | 415 kts | 246° |
| 2026-04-20 15:03 | 26.51949 | 49.81990 | 37859 ft | 414 kts | 246° |
| 2026-04-20 15:04 | 26.49394 | 49.76299 | 37861 ft | 407 kts | 253° |
| 2026-04-20 15:04 | 26.47556 | 49.70368 | 37856 ft | 403 kts | 257° |
| 2026-04-20 15:05 | 26.45822 | 49.64411 | 37859 ft | 404 kts | 257° |
| 2026-04-20 15:05 | 26.44077 | 49.58454 | 37864 ft | 404 kts | 257° |
| 2026-04-20 15:06 | 26.42321 | 49.52496 | 37872 ft | 405 kts | 257° |
| 2026-04-20 15:06 | 26.40558 | 49.46529 | 37882 ft | 405 kts | 257° |
| 2026-04-20 15:07 | 26.38804 | 49.40604 | 37888 ft | 405 kts | 257° |
| 2026-04-20 15:07 | 26.37024 | 49.34600 | 37890 ft | 405 kts | 257° |
| 2026-04-20 15:08 | 26.35266 | 49.28682 | 37892 ft | 405 kts | 257° |
| 2026-04-20 15:08 | 26.33495 | 49.22728 | 37899 ft | 404 kts | 257° |
| 2026-04-20 15:09 | 26.32011 | 49.17744 | 37896 ft | 404 kts | 257° |
| 2026-04-20 15:09 | 26.30341 | 49.11779 | 37915 ft | 400 kts | 261° |
| 2026-04-20 15:10 | 26.29351 | 49.05707 | 37903 ft | 397 kts | 267° |
| 2026-04-20 15:10 | 26.28881 | 48.99589 | 37894 ft | 396 kts | 268° |
| 2026-04-20 15:11 | 26.28436 | 48.93469 | 37896 ft | 396 kts | 268° |
| 2026-04-20 15:11 | 26.27980 | 48.87386 | 37901 ft | 397 kts | 268° |
| 2026-04-20 15:12 | 26.27507 | 48.81212 | 37912 ft | 397 kts | 268° |
| 2026-04-20 15:12 | 26.26596 | 48.75174 | 37923 ft | 402 kts | 258° |
| 2026-04-20 15:13 | 26.24789 | 48.69259 | 37914 ft | 405 kts | 253° |
| 2026-04-20 15:13 | 26.22179 | 48.63643 | 37899 ft | 410 kts | 248° |
| 2026-04-20 15:14 | 26.19388 | 48.58110 | 37918 ft | 409 kts | 248° |
| 2026-04-20 15:14 | 26.16609 | 48.52590 | 37915 ft | 408 kts | 248° |
| 2026-04-20 15:15 | 26.13840 | 48.47072 | 37918 ft | 408 kts | 248° |
| 2026-04-20 15:15 | 26.11042 | 48.41583 | 37911 ft | 408 kts | 248° |
| 2026-04-20 15:16 | 26.08238 | 48.36093 | 37918 ft | 408 kts | 248° |
| 2026-04-20 15:16 | 26.05440 | 48.30611 | 37906 ft | 408 kts | 248° |
| 2026-04-20 15:17 | 26.02645 | 48.25137 | 37910 ft | 406 kts | 248° |
| 2026-04-20 15:17 | 25.99892 | 48.19764 | 37732 ft | 392 kts | 248° |
| 2026-04-20 15:17 | 25.98547 | 48.17136 | 37147 ft | 390 kts | 248° |
| 2026-04-20 15:18 | 25.97208 | 48.14517 | 36524 ft | 389 kts | 247° |
| 2026-04-20 15:18 | 25.95871 | 48.11898 | 35795 ft | 393 kts | 246° |
| 2026-04-20 15:18 | 25.94525 | 48.09258 | 35012 ft | 404 kts | 245° |
| 2026-04-20 15:18 | 25.93107 | 48.06474 | 34126 ft | 425 kts | 244° |
| 2026-04-20 15:19 | 25.91616 | 48.03555 | 33027 ft | 441 kts | 244° |
| 2026-04-20 15:19 | 25.90087 | 48.00578 | 31954 ft | 446 kts | 243° |
| 2026-04-20 15:19 | 25.88539 | 47.97574 | 31034 ft | 450 kts | 243° |
| 2026-04-20 15:19 | 25.86980 | 47.94552 | 30217 ft | 452 kts | 243° |
| 2026-04-20 15:20 | 25.85418 | 47.91521 | 29330 ft | 451 kts | 242° |
| 2026-04-20 15:20 | 25.83865 | 47.88510 | 28494 ft | 447 kts | 242° |
| 2026-04-20 15:20 | 25.82330 | 47.85532 | 27714 ft | 443 kts | 242° |
| 2026-04-20 15:20 | 25.80808 | 47.82579 | 26959 ft | 439 kts | 242° |
| 2026-04-20 15:21 | 25.79302 | 47.79659 | 26242 ft | 435 kts | 242° |
| 2026-04-20 15:21 | 25.77805 | 47.76755 | 25507 ft | 431 kts | 242° |
| 2026-04-20 15:21 | 25.76323 | 47.73883 | 24789 ft | 427 kts | 242° |
| 2026-04-20 15:21 | 25.74853 | 47.71035 | 24081 ft | 425 kts | 242° |
| 2026-04-20 15:22 | 25.73386 | 47.68196 | 23356 ft | 422 kts | 242° |
| 2026-04-20 15:22 | 25.71933 | 47.65387 | 22558 ft | 419 kts | 242° |
| 2026-04-20 15:22 | 25.70478 | 47.62607 | 21840 ft | 414 kts | 240° |
| 2026-04-20 15:22 | 25.68791 | 47.60043 | 21213 ft | 409 kts | 232° |
| 2026-04-20 15:23 | 25.66931 | 47.57681 | 20604 ft | 404 kts | 231° |
| 2026-04-20 15:23 | 25.65089 | 47.55356 | 19993 ft | 399 kts | 232° |
| 2026-04-20 15:23 | 25.63304 | 47.53025 | 19399 ft | 394 kts | 232° |
| 2026-04-20 15:23 | 25.61614 | 47.50663 | 18803 ft | 387 kts | 238° |
| 2026-04-20 15:24 | 25.60285 | 47.48149 | 18657 ft | 370 kts | 242° |
| 2026-04-20 15:24 | 25.59071 | 47.45661 | 18498 ft | 367 kts | 244° |
| 2026-04-20 15:24 | 25.57910 | 47.43116 | 18357 ft | 374 kts | 245° |
| 2026-04-20 15:24 | 25.56753 | 47.40518 | 18183 ft | 377 kts | 245° |
| 2026-04-20 15:25 | 25.55599 | 47.37917 | 17981 ft | 375 kts | 245° |
| 2026-04-20 15:25 | 25.54447 | 47.35330 | 17799 ft | 373 kts | 245° |
| 2026-04-20 15:25 | 25.53298 | 47.32760 | 17627 ft | 371 kts | 244° |
| 2026-04-20 15:25 | 25.52153 | 47.30208 | 17427 ft | 369 kts | 244° |
| 2026-04-20 15:26 | 25.51013 | 47.27672 | 17272 ft | 367 kts | 244° |
| 2026-04-20 15:26 | 25.49873 | 47.25144 | 17097 ft | 366 kts | 244° |
| 2026-04-20 15:26 | 25.48738 | 47.22628 | 16924 ft | 365 kts | 244° |
| 2026-04-20 15:26 | 25.47621 | 47.20152 | 16758 ft | 364 kts | 243° |
| 2026-04-20 15:27 | 25.46473 | 47.17612 | 16594 ft | 363 kts | 243° |
| 2026-04-20 15:27 | 25.45358 | 47.15146 | 16409 ft | 363 kts | 243° |
| 2026-04-20 15:27 | 25.44217 | 47.12622 | 16319 ft | 360 kts | 243° |
| 2026-04-20 15:27 | 25.43122 | 47.10200 | 16147 ft | 350 kts | 243° |
| 2026-04-20 15:28 | 25.42022 | 47.07771 | 16016 ft | 361 kts | 243° |
| 2026-04-20 15:28 | 25.40882 | 47.05256 | 15860 ft | 367 kts | 243° |
| 2026-04-20 15:28 | 25.39744 | 47.02745 | 15660 ft | 363 kts | 243° |
| 2026-04-20 15:28 | 25.38626 | 47.00278 | 15132 ft | 351 kts | 242° |
| 2026-04-20 15:29 | 25.37574 | 46.97953 | 14519 ft | 326 kts | 242° |
| 2026-04-20 15:29 | 25.36619 | 46.95844 | 13945 ft | 306 kts | 241° |
| 2026-04-20 15:29 | 25.35691 | 46.93800 | 13318 ft | 289 kts | 240° |
| 2026-04-20 15:29 | 25.34809 | 46.91859 | 12665 ft | 277 kts | 240° |
| 2026-04-20 15:30 | 25.33970 | 46.90012 | 12267 ft | 259 kts | 240° |
| 2026-04-20 15:30 | 25.33177 | 46.88269 | 12086 ft | 250 kts | 240° |
| 2026-04-20 15:30 | 25.32414 | 46.86593 | 12026 ft | 238 kts | 239° |
| 2026-04-20 15:30 | 25.31659 | 46.85029 | 12007 ft | 223 kts | 237° |
| 2026-04-20 15:31 | 25.30928 | 46.83571 | 12006 ft | 215 kts | 237° |
| 2026-04-20 15:31 | 25.30199 | 46.82123 | 12025 ft | 216 kts | 237° |
| 2026-04-20 15:31 | 25.29470 | 46.80671 | 12060 ft | 214 kts | 237° |
| 2026-04-20 15:31 | 25.28751 | 46.79234 | 11966 ft | 214 kts | 237° |
| 2026-04-20 15:32 | 25.28026 | 46.77783 | 11501 ft | 219 kts | 237° |
| 2026-04-20 15:32 | 25.27278 | 46.76284 | 10779 ft | 225 kts | 237° |
| 2026-04-20 15:32 | 25.26514 | 46.74752 | 9980 ft | 231 kts | 237° |
| 2026-04-20 15:32 | 25.25717 | 46.73156 | 9031 ft | 243 kts | 237° |
| 2026-04-20 15:33 | 25.24945 | 46.71502 | 8431 ft | 239 kts | 247° |
| 2026-04-20 15:33 | 25.24817 | 46.69724 | 8203 ft | 234 kts | 277° |
| 2026-04-20 15:33 | 25.25411 | 46.68045 | 8015 ft | 238 kts | 298° |
| 2026-04-20 15:33 | 25.26541 | 46.66691 | 7648 ft | 247 kts | 326° |
| 2026-04-20 15:34 | 25.28042 | 46.65762 | 7310 ft | 248 kts | 330° |
| 2026-04-20 15:34 | 25.29553 | 46.64832 | 7054 ft | 246 kts | 330° |
| 2026-04-20 15:34 | 25.31000 | 46.63926 | 7010 ft | 232 kts | 330° |
| 2026-04-20 15:34 | 25.32397 | 46.63045 | 7020 ft | 233 kts | 329° |
| 2026-04-20 15:35 | 25.33801 | 46.62150 | 7050 ft | 230 kts | 326° |
| 2026-04-20 15:35 | 25.34854 | 46.60888 | 7015 ft | 222 kts | 292° |
| 2026-04-20 15:35 | 25.35081 | 46.59245 | 7031 ft | 217 kts | 257° |
| 2026-04-20 15:35 | 25.34633 | 46.57689 | 7037 ft | 217 kts | 244° |
| 2026-04-20 15:36 | 25.34040 | 46.56136 | 7030 ft | 219 kts | 243° |
| 2026-04-20 15:36 | 25.33444 | 46.54604 | 7016 ft | 215 kts | 243° |
| 2026-04-20 15:36 | 25.32849 | 46.53100 | 7011 ft | 211 kts | 239° |
| 2026-04-20 15:36 | 25.31933 | 46.51896 | 7012 ft | 203 kts | 211° |
| 2026-04-20 15:37 | 25.30692 | 46.51140 | 7025 ft | 207 kts | 204° |
| 2026-04-20 15:37 | 25.29363 | 46.50432 | 6831 ft | 214 kts | 201° |
| 2026-04-20 15:37 | 25.27939 | 46.50142 | 6561 ft | 209 kts | 170° |
| 2026-04-20 15:37 | 25.26579 | 46.50622 | 6361 ft | 204 kts | 158° |
| 2026-04-20 15:38 | 25.25257 | 46.51173 | 6118 ft | 202 kts | 158° |
| 2026-04-20 15:38 | 25.23931 | 46.51711 | 5782 ft | 205 kts | 158° |
| 2026-04-20 15:38 | 25.22581 | 46.52250 | 5427 ft | 208 kts | 158° |
| 2026-04-20 15:38 | 25.21218 | 46.52787 | 5097 ft | 208 kts | 158° |
| 2026-04-20 15:39 | 25.19858 | 46.53314 | 5021 ft | 206 kts | 158° |
| 2026-04-20 15:39 | 25.18546 | 46.53919 | 5009 ft | 200 kts | 151° |
| 2026-04-20 15:39 | 25.17375 | 46.54603 | 5012 ft | 181 kts | 148° |
| 2026-04-20 15:39 | 25.16338 | 46.55248 | 4991 ft | 161 kts | 147° |
| 2026-04-20 15:40 | 25.15411 | 46.55834 | 5001 ft | 150 kts | 147° |
| 2026-04-20 15:40 | 25.14506 | 46.56410 | 4998 ft | 150 kts | 147° |
| 2026-04-20 15:40 | 25.13600 | 46.56989 | 5005 ft | 151 kts | 147° |
| 2026-04-20 15:40 | 25.12687 | 46.57570 | 5012 ft | 152 kts | 147° |
| 2026-04-20 15:41 | 25.11771 | 46.58154 | 5012 ft | 152 kts | 146° |
| 2026-04-20 15:41 | 25.10850 | 46.58741 | 4999 ft | 154 kts | 146° |
| 2026-04-20 15:41 | 25.09913 | 46.59339 | 4792 ft | 155 kts | 146° |
| 2026-04-20 15:41 | 25.08989 | 46.59927 | 4593 ft | 151 kts | 146° |
| 2026-04-20 15:42 | 25.08081 | 46.60505 | 4407 ft | 151 kts | 146° |
| 2026-04-20 15:42 | 25.07170 | 46.61084 | 4218 ft | 152 kts | 145° |
| 2026-04-20 15:42 | 25.06252 | 46.61668 | 4042 ft | 153 kts | 145° |
| 2026-04-20 15:42 | 25.05332 | 46.62254 | 3837 ft | 153 kts | 145° |
| 2026-04-20 15:43 | 25.04424 | 46.62832 | 3653 ft | 153 kts | 145° |
| 2026-04-20 15:43 | 25.03505 | 46.63417 | 3456 ft | 153 kts | 144° |
| 2026-04-20 15:43 | 25.02579 | 46.64005 | 3280 ft | 155 kts | 144° |
| 2026-04-20 15:43 | 25.01645 | 46.64599 | 3077 ft | 154 kts | 144° |
| 2026-04-20 15:44 | 25.00707 | 46.65195 | 2883 ft | 154 kts | 144° |
| 2026-04-20 15:44 | 24.99789 | 46.65779 | 2695 ft | 155 kts | 143° |
| 2026-04-20 15:44 | 24.98855 | 46.66377 | 2498 ft | 155 kts | 144° |
| 2026-04-20 15:44 | 24.97917 | 46.66951 | 2312 ft | 153 kts | 146° |
| 2026-04-20 15:45 | 24.97005 | 46.67545 | 2097 ft | 150 kts | 149° |
| 2026-04-20 15:45 | 24.96145 | 46.68092 | 2052 ft | 129 kts | 150° |
| 2026-04-20 15:45 | 24.95497 | 46.68500 | 2049 ft | 85 kts | 150° |
| 2026-04-20 15:45 | 24.95114 | 46.68747 | 2052 ft | 51 kts | 145° |
| 2026-04-20 15:46 | 24.94961 | 46.68995 | 2053 ft | 38 kts | 99° |
| 2026-04-20 15:46 | 24.94978 | 46.69090 | 2052 ft | 6 kts | 54° |
| 2026-04-20 15:46 | 24.94993 | 46.69131 | 2053 ft | 6 kts | 88° |
| 2026-04-20 15:46 | 24.94950 | 46.69190 | 2053 ft | 21 kts | 149° |
| 2026-04-20 15:47 | 24.94806 | 46.69278 | 2053 ft | 24 kts | 150° |
| 2026-04-20 15:47 | 24.94661 | 46.69370 | 2052 ft | 24 kts | 150° |
| 2026-04-20 15:47 | 24.94527 | 46.69457 | 2049 ft | 11 kts | 140° |
| 2026-04-20 15:47 | 24.94542 | 46.69571 | 2049 ft | 26 kts | 61° |
| 2026-04-20 15:48 | 24.94627 | 46.69734 | 2054 ft | 19 kts | 60° |
| 2026-04-20 15:48 | 24.94695 | 46.69862 | 2053 ft | 19 kts | 60° |
| 2026-04-20 15:48 | 24.94761 | 46.69989 | 2057 ft | 19 kts | 60° |
| 2026-04-20 15:48 | 24.94824 | 46.70109 | 2060 ft | 7 kts | 60° |
| 2026-04-20 15:49 | 24.94848 | 46.70155 | 2059 ft | 7 kts | 60° |
| 2026-04-20 15:49 | 24.94876 | 46.70208 | 2060 ft | 11 kts | 60° |
| 2026-04-20 15:49 | 24.94916 | 46.70283 | 2060 ft | 12 kts | 60° |
| 2026-04-20 15:49 | 24.94956 | 46.70359 | 2060 ft | 12 kts | 60° |
| 2026-04-20 15:50 | 24.94997 | 46.70437 | 2059 ft | 12 kts | 60° |
| 2026-04-20 15:50 | 24.95045 | 46.70527 | 2058 ft | 15 kts | 60° |
| 2026-04-20 15:50 | 24.95100 | 46.70631 | 2058 ft | 16 kts | 60° |
| 2026-04-20 15:50 | 24.95153 | 46.70733 | 2051 ft | 12 kts | 60° |
| 2026-04-20 15:51 | 24.95183 | 46.70793 | 2052 ft | 7 kts | 64° |
| 2026-04-20 15:51 | 24.95188 | 46.70845 | 2053 ft | 8 kts | 105° |
| 2026-04-20 15:51 | 24.95177 | 46.70864 | 2051 ft | 3 kts | 127° |
| 2026-04-20 15:51 | 24.95100 | 46.70924 | 2052 ft | 22 kts | 149° |
| 2026-04-20 15:52 | 24.94964 | 46.71010 | 2052 ft | 26 kts | 150° |
| 2026-04-20 15:52 | 24.94741 | 46.71151 | 2052 ft | 47 kts | 150° |
| 2026-04-20 15:52 | 24.94594 | 46.71225 | 2054 ft | 2 kts | 211° |
| 2026-04-20 15:53 | 24.94559 | 46.71136 | 2054 ft | 5 kts | 240° |
| 2026-04-20 15:53 | 24.94558 | 46.71134 | 2054 ft | 0 kts | 240° |